createdAt,value
2017-09-19T00:00:02.812Z,64.56
2017-09-19T00:00:34.461Z,64.55
2017-09-19T00:01:06.106Z,64.55
2017-09-19T00:01:37.880Z,64.59
2017-09-19T00:02:09.540Z,64.55
2017-09-19T00:02:41.190Z,64.57
2017-09-19T00:03:12.837Z,64.61
2017-09-19T00:03:44.477Z,64.60
2017-09-19T00:04:16.557Z,64.62
2017-09-19T00:04:48.204Z,64.63
2017-09-19T00:05:19.858Z,64.61
2017-09-19T00:05:51.502Z,64.62
2017-09-19T00:06:23.292Z,64.65
2017-09-19T00:06:54.941Z,64.76
2017-09-19T00:07:26.581Z,64.72
2017-09-19T00:07:58.225Z,64.73
2017-09-19T00:08:29.865Z,64.80
2017-09-19T00:09:01.509Z,64.79
2017-09-19T00:09:33.153Z,64.73
2017-09-19T00:10:04.794Z,64.74
2017-09-19T00:10:36.480Z,64.79
2017-09-19T00:11:08.370Z,64.75
2017-09-19T00:11:40.319Z,64.76
2017-09-19T00:12:11.973Z,64.76
2017-09-19T00:12:43.622Z,64.80
2017-09-19T00:13:15.266Z,64.78
2017-09-19T00:13:48.113Z,64.76
2017-09-19T00:14:21.029Z,64.72
2017-09-19T00:14:52.673Z,64.83
2017-09-19T00:15:24.565Z,64.81
2017-09-19T00:15:56.526Z,64.79
2017-09-19T00:16:28.477Z,64.84
2017-09-19T00:17:00.279Z,64.83
2017-09-19T00:17:31.921Z,64.85
2017-09-19T00:18:03.709Z,64.76
2017-09-19T00:18:35.358Z,64.75
2017-09-19T00:19:07.611Z,64.73
2017-09-19T00:19:40.293Z,64.81
2017-09-19T00:20:12.120Z,64.90
2017-09-19T00:20:43.773Z,64.86
2017-09-19T00:21:15.430Z,64.87
2017-09-19T00:21:47.077Z,64.80
2017-09-19T00:22:18.721Z,64.84
2017-09-19T00:22:50.365Z,64.84
2017-09-19T00:23:22.005Z,64.86
2017-09-19T00:23:53.649Z,64.92
2017-09-19T00:24:25.296Z,64.92
2017-09-19T00:24:56.942Z,64.99
2017-09-19T00:25:28.835Z,64.93
2017-09-19T00:26:00.794Z,64.95
2017-09-19T00:26:32.442Z,64.89
2017-09-19T00:27:04.089Z,64.91
2017-09-19T00:27:36.036Z,64.91
2017-09-19T00:28:07.677Z,64.91
2017-09-19T00:28:39.325Z,64.92
2017-09-19T00:29:10.977Z,64.91
2017-09-19T00:29:42.625Z,64.97
2017-09-19T00:30:14.273Z,64.91
2017-09-19T00:30:45.917Z,64.92
2017-09-19T00:31:17.562Z,64.91
2017-09-19T00:31:49.213Z,64.86
2017-09-19T00:32:20.875Z,64.90
2017-09-19T00:32:52.581Z,64.89
2017-09-19T00:33:24.229Z,64.91
2017-09-19T00:33:55.873Z,64.86
2017-09-19T00:34:27.513Z,64.90
2017-09-19T00:34:59.165Z,64.88
2017-09-19T00:35:30.817Z,64.85
2017-09-19T00:36:02.457Z,64.85
2017-09-19T00:36:34.097Z,64.88
2017-09-19T00:37:05.741Z,64.82
2017-09-19T00:37:37.389Z,64.83
2017-09-19T00:38:09.090Z,64.83
2017-09-19T00:38:40.741Z,64.85
2017-09-19T00:39:12.385Z,64.82
2017-09-19T00:39:44.030Z,64.80
2017-09-19T00:40:15.679Z,64.82
2017-09-19T00:40:47.325Z,64.79
2017-09-19T00:41:18.982Z,64.83
2017-09-19T00:41:50.666Z,64.79
2017-09-19T00:42:22.317Z,64.79
2017-09-19T00:42:53.965Z,64.84
2017-09-19T00:43:25.655Z,64.78
2017-09-19T00:43:57.301Z,64.78
2017-09-19T00:44:29.155Z,64.81
2017-09-19T00:45:00.823Z,64.81
2017-09-19T00:45:32.479Z,64.83
2017-09-19T00:46:04.121Z,64.79
2017-09-19T00:46:35.769Z,64.77
2017-09-19T00:47:07.422Z,64.81
2017-09-19T00:47:39.061Z,64.82
2017-09-19T00:48:10.701Z,64.85
2017-09-19T00:48:42.342Z,64.84
2017-09-19T00:49:14.267Z,64.87
2017-09-19T00:49:45.917Z,64.88
2017-09-19T00:50:17.565Z,64.90
2017-09-19T00:50:49.208Z,64.90
2017-09-19T00:51:20.849Z,64.89
2017-09-19T00:51:52.537Z,64.93
2017-09-19T00:52:24.193Z,64.96
2017-09-19T00:52:56.069Z,65.00
2017-09-19T00:53:27.952Z,64.98
2017-09-19T00:53:59.597Z,65.01
2017-09-19T00:54:31.241Z,64.99
2017-09-19T00:55:02.897Z,64.98
2017-09-19T00:55:34.541Z,65.03
2017-09-19T00:56:06.182Z,65.06
2017-09-19T00:56:37.871Z,65.02
2017-09-19T00:57:09.565Z,65.05
2017-09-19T00:57:41.209Z,65.01
2017-09-19T00:58:12.853Z,65.04
2017-09-19T00:58:44.746Z,65.07
2017-09-19T00:59:16.393Z,65.05
2017-09-19T00:59:48.044Z,65.08
2017-09-19T01:00:19.685Z,65.07
2017-09-19T01:00:51.328Z,65.04
2017-09-19T01:01:23.014Z,65.17
2017-09-19T01:01:54.713Z,65.27
2017-09-19T01:02:26.353Z,65.26
2017-09-19T01:02:58.014Z,65.30
2017-09-19T01:03:29.666Z,65.39
2017-09-19T01:04:01.313Z,65.44
2017-09-19T01:04:32.965Z,65.55
2017-09-19T01:05:04.609Z,65.67
2017-09-19T01:05:36.253Z,65.63
2017-09-19T01:06:07.893Z,65.69
2017-09-19T01:06:39.680Z,65.66
2017-09-19T01:07:11.372Z,65.66
2017-09-19T01:07:43.017Z,65.92
2017-09-19T01:08:14.860Z,65.60
2017-09-19T01:08:46.505Z,65.71
2017-09-19T01:09:18.198Z,65.71
2017-09-19T01:09:49.853Z,65.69
2017-09-19T01:10:21.497Z,65.77
2017-09-19T01:10:53.428Z,65.57
2017-09-19T01:11:25.085Z,65.63
2017-09-19T01:11:56.733Z,65.44
2017-09-19T01:12:28.429Z,65.44
2017-09-19T01:13:00.303Z,65.48
2017-09-19T01:13:31.957Z,65.57
2017-09-19T01:14:03.605Z,65.61
2017-09-19T01:14:35.253Z,65.63
2017-09-19T01:15:06.897Z,65.62
2017-09-19T01:15:38.545Z,65.58
2017-09-19T01:16:10.185Z,65.61
2017-09-19T01:16:41.829Z,65.58
2017-09-19T01:17:13.479Z,65.60
2017-09-19T01:17:45.357Z,65.61
2017-09-19T01:18:17.025Z,65.63
2017-09-19T01:18:48.979Z,65.60
2017-09-19T01:19:20.806Z,65.61
2017-09-19T01:19:52.569Z,65.62
2017-09-19T01:20:24.449Z,65.61
2017-09-19T01:20:56.097Z,65.64
2017-09-19T01:21:27.745Z,65.62
2017-09-19T01:21:59.385Z,65.63
2017-09-19T01:22:31.025Z,65.63
2017-09-19T01:23:03.035Z,65.64
2017-09-19T01:23:34.685Z,65.64
2017-09-19T01:24:06.335Z,65.62
2017-09-19T01:24:37.979Z,65.67
2017-09-19T01:25:09.621Z,65.64
2017-09-19T01:25:41.268Z,65.67
2017-09-19T01:26:12.921Z,65.67
2017-09-19T01:26:44.563Z,65.67
2017-09-19T01:27:16.213Z,65.64
2017-09-19T01:27:47.865Z,65.66
2017-09-19T01:28:19.589Z,65.65
2017-09-19T01:28:51.233Z,65.67
2017-09-19T01:29:22.873Z,65.71
2017-09-19T01:29:54.686Z,65.72
2017-09-19T01:30:26.569Z,65.72
2017-09-19T01:30:58.220Z,65.72
2017-09-19T01:31:29.861Z,65.72
2017-09-19T01:32:01.510Z,65.74
2017-09-19T01:32:33.157Z,65.81
2017-09-19T01:33:04.801Z,65.86
2017-09-19T01:33:36.445Z,65.95
2017-09-19T01:34:08.089Z,66.06
2017-09-19T01:34:39.796Z,65.98
2017-09-19T01:35:11.444Z,66.01
2017-09-19T01:35:43.086Z,66.08
2017-09-19T01:36:14.737Z,66.02
2017-09-19T01:36:46.381Z,66.05
2017-09-19T01:37:18.030Z,66.09
2017-09-19T01:37:49.674Z,66.09
2017-09-19T01:38:21.318Z,66.04
2017-09-19T01:38:52.963Z,66.06
2017-09-19T01:39:24.613Z,66.19
2017-09-19T01:39:56.305Z,66.13
2017-09-19T01:40:27.949Z,66.08
2017-09-19T01:40:59.589Z,66.14
2017-09-19T01:41:31.233Z,66.15
2017-09-19T01:42:02.881Z,66.17
2017-09-19T01:42:34.527Z,66.20
2017-09-19T01:43:06.173Z,66.14
2017-09-19T01:43:37.991Z,66.22
2017-09-19T01:44:09.641Z,66.16
2017-09-19T01:44:41.285Z,66.20
2017-09-19T01:45:12.933Z,66.24
2017-09-19T01:45:44.586Z,66.18
2017-09-19T01:46:16.229Z,66.21
2017-09-19T01:46:47.880Z,66.19
2017-09-19T01:47:19.529Z,66.31
2017-09-19T01:47:51.177Z,66.23
2017-09-19T01:48:22.823Z,66.29
2017-09-19T01:48:54.716Z,66.28
2017-09-19T01:49:26.365Z,66.36
2017-09-19T01:49:58.009Z,66.24
2017-09-19T01:50:29.949Z,66.22
2017-09-19T01:51:01.602Z,66.31
2017-09-19T01:51:33.253Z,66.34
2017-09-19T01:52:04.901Z,66.30
2017-09-19T01:52:36.541Z,66.33
2017-09-19T01:53:08.189Z,66.34
2017-09-19T01:53:39.829Z,66.40
2017-09-19T01:54:11.725Z,66.36
2017-09-19T01:54:43.389Z,66.40
2017-09-19T01:55:15.270Z,66.37
2017-09-19T01:55:46.913Z,66.38
2017-09-19T01:56:18.557Z,66.57
2017-09-19T01:56:50.240Z,66.45
2017-09-19T01:57:21.908Z,66.55
2017-09-19T01:57:53.588Z,66.59
2017-09-19T01:58:25.254Z,66.55
2017-09-19T01:58:56.902Z,66.55
2017-09-19T01:59:28.585Z,66.57
2017-09-19T02:00:00.229Z,66.63
2017-09-19T02:00:31.873Z,66.58
2017-09-19T02:01:03.517Z,66.66
2017-09-19T02:01:35.161Z,66.52
2017-09-19T02:02:06.805Z,66.55
2017-09-19T02:02:38.445Z,66.69
2017-09-19T02:03:10.085Z,66.61
2017-09-19T02:03:41.730Z,66.50
2017-09-19T02:04:13.413Z,66.64
2017-09-19T02:04:45.057Z,66.57
2017-09-19T02:05:16.745Z,66.62
2017-09-19T02:05:48.393Z,66.64
2017-09-19T02:06:20.041Z,66.67
2017-09-19T02:06:51.685Z,66.68
2017-09-19T02:07:23.366Z,66.68
2017-09-19T02:07:55.234Z,66.72
2017-09-19T02:08:27.003Z,66.75
2017-09-19T02:08:58.706Z,66.74
2017-09-19T02:09:30.594Z,66.73
2017-09-19T02:10:02.246Z,66.81
2017-09-19T02:10:33.894Z,66.78
2017-09-19T02:11:05.537Z,66.58
2017-09-19T02:11:37.181Z,66.60
2017-09-19T02:12:08.825Z,66.66
2017-09-19T02:12:40.477Z,66.57
2017-09-19T02:13:12.116Z,66.64
2017-09-19T02:13:43.765Z,66.59
2017-09-19T02:14:15.681Z,66.59
2017-09-19T02:14:47.564Z,66.57
2017-09-19T02:15:19.214Z,66.62
2017-09-19T02:15:50.857Z,66.66
2017-09-19T02:16:22.561Z,66.53
2017-09-19T02:16:54.205Z,66.53
2017-09-19T02:17:25.849Z,66.53
2017-09-19T02:17:57.492Z,66.58
2017-09-19T02:18:29.141Z,66.52
2017-09-19T02:19:00.785Z,66.55
2017-09-19T02:19:32.437Z,66.58
2017-09-19T02:20:04.089Z,66.66
2017-09-19T02:20:35.740Z,66.82
2017-09-19T02:21:07.638Z,66.76
2017-09-19T02:21:39.586Z,66.65
2017-09-19T02:22:11.536Z,66.75
2017-09-19T02:22:43.485Z,66.68
2017-09-19T02:23:15.314Z,66.63
2017-09-19T02:23:47.075Z,66.70
2017-09-19T02:24:18.910Z,66.65
2017-09-19T02:24:50.666Z,66.61
2017-09-19T02:25:22.317Z,66.62
2017-09-19T02:25:53.965Z,66.52
2017-09-19T02:26:25.613Z,66.49
2017-09-19T02:26:57.288Z,66.40
2017-09-19T02:27:28.929Z,66.33
2017-09-19T02:28:00.575Z,66.29
2017-09-19T02:28:32.221Z,66.19
2017-09-19T02:29:03.870Z,66.10
2017-09-19T02:29:35.568Z,66.17
2017-09-19T02:30:07.213Z,66.05
2017-09-19T02:30:38.857Z,65.97
2017-09-19T02:31:10.502Z,66.00
2017-09-19T02:31:42.156Z,65.92
2017-09-19T02:32:13.801Z,65.98
2017-09-19T02:32:45.454Z,65.89
2017-09-19T02:33:17.100Z,65.88
2017-09-19T02:33:48.741Z,65.78
2017-09-19T02:34:20.389Z,65.79
2017-09-19T02:34:52.172Z,65.81
2017-09-19T02:35:23.828Z,65.78
2017-09-19T02:35:55.477Z,65.79
2017-09-19T02:36:27.117Z,65.70
2017-09-19T02:36:58.781Z,65.76
2017-09-19T02:37:30.425Z,65.71
2017-09-19T02:38:02.077Z,65.73
2017-09-19T02:38:33.919Z,65.74
2017-09-19T02:39:05.566Z,65.64
2017-09-19T02:39:37.214Z,65.56
2017-09-19T02:40:08.910Z,65.61
2017-09-19T02:40:40.558Z,65.58
2017-09-19T02:41:12.206Z,65.71
2017-09-19T02:41:43.850Z,65.58
2017-09-19T02:42:15.496Z,65.50
2017-09-19T02:42:47.142Z,65.42
2017-09-19T02:43:18.794Z,65.49
2017-09-19T02:43:50.437Z,65.49
2017-09-19T02:44:22.084Z,65.57
2017-09-19T02:44:53.729Z,65.42
2017-09-19T02:45:25.623Z,65.62
2017-09-19T02:45:57.286Z,65.57
2017-09-19T02:46:28.941Z,65.61
2017-09-19T02:47:00.602Z,65.61
2017-09-19T02:47:32.249Z,65.73
2017-09-19T02:48:03.953Z,65.80
2017-09-19T02:48:35.593Z,65.68
2017-09-19T02:49:07.238Z,65.83
2017-09-19T02:49:38.885Z,65.73
2017-09-19T02:50:10.526Z,65.69
2017-09-19T02:50:42.177Z,66.12
2017-09-19T02:51:13.822Z,65.93
2017-09-19T02:51:45.466Z,66.05
2017-09-19T02:52:17.114Z,66.04
2017-09-19T02:52:48.769Z,66.03
2017-09-19T02:53:20.560Z,66.06
2017-09-19T02:53:52.213Z,66.08
2017-09-19T02:54:23.857Z,66.02
2017-09-19T02:54:55.797Z,66.13
2017-09-19T02:55:27.494Z,66.11
2017-09-19T02:55:59.149Z,66.12
2017-09-19T02:56:31.026Z,66.16
2017-09-19T02:57:02.678Z,66.10
2017-09-19T02:57:34.326Z,66.17
2017-09-19T02:58:05.970Z,66.14
2017-09-19T02:58:37.614Z,66.20
2017-09-19T02:59:09.265Z,66.23
2017-09-19T02:59:40.909Z,66.26
2017-09-19T03:00:12.558Z,66.28
2017-09-19T03:00:44.261Z,66.32
2017-09-19T03:01:16.104Z,66.35
2017-09-19T03:01:47.756Z,66.32
2017-09-19T03:02:19.405Z,66.37
2017-09-19T03:02:51.055Z,66.39
2017-09-19T03:03:22.709Z,66.36
2017-09-19T03:03:54.350Z,66.34
2017-09-19T03:04:25.989Z,66.45
2017-09-19T03:04:57.630Z,66.45
2017-09-19T03:05:29.273Z,66.41
2017-09-19T03:06:00.961Z,66.46
2017-09-19T03:06:32.605Z,66.49
2017-09-19T03:07:04.254Z,66.50
2017-09-19T03:07:35.941Z,66.55
2017-09-19T03:08:07.585Z,66.54
2017-09-19T03:08:39.244Z,66.71
2017-09-19T03:09:10.897Z,66.69
2017-09-19T03:09:42.541Z,66.57
2017-09-19T03:10:14.327Z,66.56
2017-09-19T03:10:46.150Z,66.61
2017-09-19T03:11:17.931Z,66.60
2017-09-19T03:11:49.581Z,66.68
2017-09-19T03:12:21.225Z,66.64
2017-09-19T03:12:52.869Z,66.69
2017-09-19T03:13:24.509Z,66.87
2017-09-19T03:13:56.154Z,66.77
2017-09-19T03:14:27.797Z,66.78
2017-09-19T03:14:59.442Z,66.88
2017-09-19T03:15:31.085Z,66.97
2017-09-19T03:16:02.733Z,66.92
2017-09-19T03:16:34.373Z,66.86
2017-09-19T03:17:06.256Z,66.88
2017-09-19T03:17:37.926Z,66.94
2017-09-19T03:18:09.752Z,67.05
2017-09-19T03:18:41.522Z,67.10
2017-09-19T03:19:13.209Z,67.18
2017-09-19T03:19:44.860Z,67.05
2017-09-19T03:20:16.752Z,67.04
2017-09-19T03:20:48.596Z,67.08
2017-09-19T03:21:20.344Z,67.13
2017-09-19T03:21:51.994Z,67.10
2017-09-19T03:22:23.651Z,67.13
2017-09-19T03:22:55.293Z,67.13
2017-09-19T03:23:26.938Z,67.19
2017-09-19T03:23:58.581Z,67.09
2017-09-19T03:24:30.460Z,67.20
2017-09-19T03:25:02.145Z,67.26
2017-09-19T03:25:33.793Z,67.24
2017-09-19T03:26:05.438Z,67.32
2017-09-19T03:26:37.093Z,67.23
2017-09-19T03:27:08.750Z,67.28
2017-09-19T03:27:40.393Z,67.29
2017-09-19T03:28:12.053Z,67.37
2017-09-19T03:28:43.700Z,67.45
2017-09-19T03:29:15.586Z,67.55
2017-09-19T03:29:47.535Z,67.45
2017-09-19T03:30:19.186Z,67.51
2017-09-19T03:30:51.116Z,67.55
2017-09-19T03:31:22.769Z,67.58
2017-09-19T03:31:54.425Z,67.63
2017-09-19T03:32:26.077Z,67.56
2017-09-19T03:32:57.745Z,67.71
2017-09-19T03:33:29.389Z,67.78
2017-09-19T03:34:01.035Z,67.74
2017-09-19T03:34:32.685Z,67.61
2017-09-19T03:35:04.385Z,67.91
2017-09-19T03:35:36.037Z,67.84
2017-09-19T03:36:07.701Z,67.83
2017-09-19T03:36:39.349Z,67.82
2017-09-19T03:37:11.045Z,68.06
2017-09-19T03:37:42.694Z,67.99
2017-09-19T03:38:14.339Z,68.25
2017-09-19T03:38:45.982Z,68.12
2017-09-19T03:39:17.625Z,68.09
2017-09-19T03:39:49.273Z,68.23
2017-09-19T03:40:20.925Z,68.28
2017-09-19T03:40:52.573Z,68.17
2017-09-19T03:41:24.225Z,68.27
2017-09-19T03:41:55.870Z,68.18
2017-09-19T03:42:27.561Z,68.35
2017-09-19T03:42:59.249Z,68.35
2017-09-19T03:43:30.898Z,68.19
2017-09-19T03:44:02.545Z,68.18
2017-09-19T03:44:34.193Z,68.12
2017-09-19T03:45:05.877Z,68.15
2017-09-19T03:45:37.522Z,68.08
2017-09-19T03:46:09.173Z,68.08
2017-09-19T03:46:40.814Z,68.24
2017-09-19T03:47:12.453Z,68.18
2017-09-19T03:47:44.098Z,68.25
2017-09-19T03:48:15.930Z,68.25
2017-09-19T03:48:47.582Z,68.44
2017-09-19T03:49:19.230Z,68.42
2017-09-19T03:49:50.873Z,68.45
2017-09-19T03:50:22.521Z,68.41
2017-09-19T03:50:54.161Z,68.52
2017-09-19T03:51:25.801Z,68.52
2017-09-19T03:51:57.445Z,68.62
2017-09-19T03:52:29.089Z,68.58
2017-09-19T03:53:01.749Z,68.48
2017-09-19T03:53:33.443Z,68.67
2017-09-19T03:54:05.213Z,68.49
2017-09-19T03:54:37.097Z,68.62
2017-09-19T03:55:08.804Z,68.75
2017-09-19T03:55:40.500Z,68.69
2017-09-19T03:56:12.154Z,68.53
2017-09-19T03:56:44.037Z,68.64
2017-09-19T03:57:15.870Z,68.65
2017-09-19T03:57:47.628Z,68.72
2017-09-19T03:58:19.577Z,68.60
2017-09-19T03:58:51.229Z,68.67
2017-09-19T03:59:22.873Z,68.63
2017-09-19T03:59:54.519Z,68.66
2017-09-19T04:00:26.162Z,68.73
2017-09-19T04:00:57.985Z,68.73
2017-09-19T04:01:29.736Z,68.72
2017-09-19T04:02:01.389Z,68.67
2017-09-19T04:02:33.034Z,68.65
2017-09-19T04:03:04.677Z,68.62
2017-09-19T04:03:36.317Z,68.86
2017-09-19T04:04:07.966Z,68.59
2017-09-19T04:04:39.617Z,68.69
2017-09-19T04:05:11.266Z,68.88
2017-09-19T04:05:42.948Z,68.65
2017-09-19T04:06:14.601Z,68.67
2017-09-19T04:06:46.463Z,68.84
2017-09-19T04:07:18.121Z,68.56
2017-09-19T04:07:49.774Z,68.69
2017-09-19T04:08:21.422Z,68.62
2017-09-19T04:08:53.078Z,68.64
2017-09-19T04:09:24.733Z,68.74
2017-09-19T04:09:56.387Z,68.58
2017-09-19T04:10:28.037Z,68.58
2017-09-19T04:10:59.803Z,68.45
2017-09-19T04:11:31.547Z,68.39
2017-09-19T04:12:03.193Z,68.52
2017-09-19T04:12:34.841Z,68.54
2017-09-19T04:13:06.530Z,68.45
2017-09-19T04:13:38.258Z,68.42
2017-09-19T04:14:10.040Z,68.45
2017-09-19T04:14:41.705Z,68.42
2017-09-19T04:15:13.317Z,68.51
2017-09-19T04:15:44.989Z,68.46
2017-09-19T04:16:16.681Z,68.50
2017-09-19T04:16:48.333Z,68.40
2017-09-19T04:17:20.181Z,68.48
2017-09-19T04:17:51.864Z,68.49
2017-09-19T04:18:23.521Z,68.43
2017-09-19T04:18:55.210Z,68.50
2017-09-19T04:19:27.097Z,68.39
2017-09-19T04:19:58.748Z,68.39
2017-09-19T04:20:30.357Z,68.32
2017-09-19T04:21:02.019Z,68.39
2017-09-19T04:21:33.684Z,68.40
2017-09-19T04:22:05.613Z,68.29
2017-09-19T04:22:37.265Z,68.38
2017-09-19T04:23:08.913Z,68.30
2017-09-19T04:23:40.561Z,68.32
2017-09-19T04:24:12.218Z,68.40
2017-09-19T04:24:43.869Z,68.29
2017-09-19T04:25:15.522Z,68.30
2017-09-19T04:25:47.416Z,68.35
2017-09-19T04:26:19.071Z,68.30
2017-09-19T04:26:50.741Z,68.25
2017-09-19T04:27:22.438Z,68.28
2017-09-19T04:27:54.106Z,68.25
2017-09-19T04:28:25.758Z,68.36
2017-09-19T04:28:57.571Z,68.25
2017-09-19T04:29:29.218Z,68.24
2017-09-19T04:30:00.875Z,68.28
2017-09-19T04:30:32.522Z,68.30
2017-09-19T04:31:04.182Z,68.31
2017-09-19T04:31:35.826Z,68.21
2017-09-19T04:32:07.514Z,68.17
2017-09-19T04:32:39.207Z,68.23
2017-09-19T04:33:10.858Z,68.25
2017-09-19T04:33:42.510Z,68.17
2017-09-19T04:34:14.634Z,68.13
2017-09-19T04:34:46.285Z,68.37
2017-09-19T04:35:18.186Z,68.21
2017-09-19T04:35:49.835Z,68.25
2017-09-19T04:36:21.674Z,68.21
2017-09-19T04:36:53.437Z,68.25
2017-09-19T04:37:25.090Z,68.27
2017-09-19T04:37:56.733Z,68.40
2017-09-19T04:38:28.375Z,68.38
2017-09-19T04:39:00.017Z,68.71
2017-09-19T04:39:31.665Z,69.29
2017-09-19T04:40:03.305Z,69.32
2017-09-19T04:40:34.953Z,69.08
2017-09-19T04:41:06.593Z,69.40
2017-09-19T04:41:38.235Z,69.11
2017-09-19T04:42:10.158Z,69.32
2017-09-19T04:42:41.861Z,69.06
2017-09-19T04:43:13.513Z,69.54
2017-09-19T04:43:45.161Z,69.24
2017-09-19T04:44:16.865Z,69.08
2017-09-19T04:44:48.561Z,69.11
2017-09-19T04:45:20.225Z,69.23
2017-09-19T04:45:51.873Z,69.32
2017-09-19T04:46:23.517Z,69.17
2017-09-19T04:46:55.173Z,69.16
2017-09-19T04:47:26.817Z,69.23
2017-09-19T04:47:58.457Z,69.12
2017-09-19T04:48:30.167Z,69.02
2017-09-19T04:49:02.141Z,68.90
2017-09-19T04:49:34.035Z,69.09
2017-09-19T04:50:05.703Z,68.89
2017-09-19T04:50:37.359Z,68.88
2017-09-19T04:51:09.009Z,69.07
2017-09-19T04:51:40.658Z,68.86
2017-09-19T04:52:12.306Z,68.74
2017-09-19T04:52:43.953Z,68.86
2017-09-19T04:53:15.599Z,68.58
2017-09-19T04:53:47.237Z,68.58
2017-09-19T04:54:18.885Z,68.54
2017-09-19T04:54:50.770Z,68.60
2017-09-19T04:55:22.431Z,68.79
2017-09-19T04:55:54.085Z,68.71
2017-09-19T04:56:25.729Z,68.75
2017-09-19T04:56:57.381Z,68.63
2017-09-19T04:57:29.025Z,68.59
2017-09-19T04:58:00.665Z,68.60
2017-09-19T04:58:32.309Z,68.50
2017-09-19T04:59:03.953Z,68.51
2017-09-19T04:59:35.595Z,68.53
2017-09-19T05:00:07.237Z,68.51
2017-09-19T05:00:38.886Z,68.43
2017-09-19T05:01:10.529Z,68.41
2017-09-19T05:01:42.173Z,68.30
2017-09-19T05:02:13.825Z,68.36
2017-09-19T05:02:45.477Z,68.39
2017-09-19T05:03:17.137Z,68.36
2017-09-19T05:03:49.010Z,68.37
2017-09-19T05:04:20.663Z,68.45
2017-09-19T05:04:52.353Z,68.57
2017-09-19T05:05:24.245Z,68.50
2017-09-19T05:05:55.942Z,68.46
2017-09-19T05:06:27.834Z,68.52
2017-09-19T05:06:59.494Z,68.60
2017-09-19T05:07:31.142Z,68.68
2017-09-19T05:08:02.794Z,68.52
2017-09-19T05:08:34.709Z,68.60
2017-09-19T05:09:06.362Z,68.60
2017-09-19T05:09:38.014Z,68.66
2017-09-19T05:10:09.661Z,68.60
2017-09-19T05:10:41.304Z,68.66
2017-09-19T05:11:12.951Z,68.77
2017-09-19T05:11:44.594Z,68.71
2017-09-19T05:12:16.236Z,68.65
2017-09-19T05:12:48.150Z,68.66
2017-09-19T05:13:19.798Z,68.56
2017-09-19T05:13:51.441Z,68.71
2017-09-19T05:14:23.085Z,68.61
2017-09-19T05:14:54.741Z,68.60
2017-09-19T05:15:26.381Z,68.63
2017-09-19T05:15:58.028Z,68.65
2017-09-19T05:16:29.701Z,68.68
2017-09-19T05:17:01.345Z,68.64
2017-09-19T05:17:32.989Z,68.70
2017-09-19T05:18:04.879Z,68.71
2017-09-19T05:18:36.529Z,68.70
2017-09-19T05:19:08.173Z,68.68
2017-09-19T05:19:39.813Z,68.67
2017-09-19T05:20:11.477Z,68.70
2017-09-19T05:20:43.369Z,68.65
2017-09-19T05:21:15.036Z,68.62
2017-09-19T05:21:46.688Z,68.66
2017-09-19T05:22:18.329Z,68.81
2017-09-19T05:22:49.981Z,68.70
2017-09-19T05:23:21.620Z,68.77
2017-09-19T05:23:53.266Z,68.73
2017-09-19T05:24:24.914Z,68.68
2017-09-19T05:24:56.559Z,68.73
2017-09-19T05:25:28.202Z,68.67
2017-09-19T05:26:00.079Z,68.70
2017-09-19T05:26:31.722Z,68.78
2017-09-19T05:27:03.404Z,68.75
2017-09-19T05:27:35.053Z,68.71
2017-09-19T05:28:06.697Z,68.76
2017-09-19T05:28:38.342Z,68.63
2017-09-19T05:29:09.985Z,68.62
2017-09-19T05:29:42.009Z,68.63
2017-09-19T05:30:13.870Z,68.65
2017-09-19T05:30:45.739Z,68.71
2017-09-19T05:31:17.442Z,68.64
2017-09-19T05:31:49.103Z,68.58
2017-09-19T05:32:21.052Z,68.71
2017-09-19T05:32:52.709Z,68.74
2017-09-19T05:33:24.354Z,68.66
2017-09-19T05:33:55.997Z,68.65
2017-09-19T05:34:27.637Z,68.68
2017-09-19T05:34:59.293Z,68.73
2017-09-19T05:35:30.938Z,68.68
2017-09-19T05:36:02.582Z,68.72
2017-09-19T05:36:34.494Z,68.68
2017-09-19T05:37:06.375Z,68.62
2017-09-19T05:37:38.021Z,68.72
2017-09-19T05:38:09.666Z,68.63
2017-09-19T05:38:41.667Z,68.67
2017-09-19T05:39:13.628Z,68.75
2017-09-19T05:39:45.277Z,68.68
2017-09-19T05:40:16.921Z,68.69
2017-09-19T05:40:48.573Z,68.80
2017-09-19T05:41:20.218Z,68.62
2017-09-19T05:41:51.861Z,68.66
2017-09-19T05:42:23.505Z,68.77
2017-09-19T05:42:55.150Z,68.78
2017-09-19T05:43:26.789Z,68.67
2017-09-19T05:43:58.473Z,68.70
2017-09-19T05:44:30.113Z,68.69
2017-09-19T05:45:01.762Z,68.73
2017-09-19T05:45:33.635Z,68.63
2017-09-19T05:46:05.584Z,68.76
2017-09-19T05:46:37.233Z,68.75
2017-09-19T05:47:08.881Z,68.65
2017-09-19T05:47:40.529Z,68.69
2017-09-19T05:48:12.188Z,68.62
2017-09-19T05:48:43.833Z,68.65
2017-09-19T05:49:15.483Z,68.66
2017-09-19T05:49:47.359Z,68.64
2017-09-19T05:50:19.025Z,68.76
2017-09-19T05:50:50.677Z,68.77
2017-09-19T05:51:22.321Z,68.68
2017-09-19T05:51:53.969Z,68.70
2017-09-19T05:52:25.609Z,68.77
2017-09-19T05:52:57.255Z,68.85
2017-09-19T05:53:28.907Z,68.85
2017-09-19T05:54:00.565Z,68.85
2017-09-19T05:54:32.214Z,68.88
2017-09-19T05:55:04.093Z,68.92
2017-09-19T05:55:35.778Z,68.97
2017-09-19T05:56:07.429Z,68.92
2017-09-19T05:56:39.079Z,69.04
2017-09-19T05:57:10.729Z,68.95
2017-09-19T05:57:42.382Z,68.98
2017-09-19T05:58:14.260Z,68.97
2017-09-19T05:58:45.949Z,69.02
2017-09-19T05:59:17.613Z,68.86
2017-09-19T05:59:49.265Z,68.84
2017-09-19T06:00:21.146Z,68.89
2017-09-19T06:00:52.816Z,68.90
2017-09-19T06:01:24.465Z,68.88
2017-09-19T06:01:56.109Z,68.82
2017-09-19T06:02:27.758Z,68.87
2017-09-19T06:02:59.595Z,68.90
2017-09-19T06:03:31.302Z,68.94
2017-09-19T06:04:03.170Z,68.90
2017-09-19T06:04:34.878Z,68.87
2017-09-19T06:05:06.537Z,68.82
2017-09-19T06:05:38.190Z,68.95
2017-09-19T06:06:09.837Z,68.88
2017-09-19T06:06:41.486Z,68.76
2017-09-19T06:07:13.129Z,68.76
2017-09-19T06:07:44.783Z,68.81
2017-09-19T06:08:16.444Z,68.81
2017-09-19T06:08:48.106Z,68.87
2017-09-19T06:09:19.753Z,68.92
2017-09-19T06:09:51.446Z,68.89
2017-09-19T06:10:23.096Z,68.86
2017-09-19T06:10:54.743Z,68.82
2017-09-19T06:11:26.393Z,68.86
2017-09-19T06:11:58.188Z,68.76
2017-09-19T06:12:29.842Z,68.86
2017-09-19T06:13:01.496Z,68.82
2017-09-19T06:13:33.142Z,68.83
2017-09-19T06:14:04.785Z,68.91
2017-09-19T06:14:36.599Z,68.80
2017-09-19T06:15:08.284Z,68.82
2017-09-19T06:15:39.935Z,68.91
2017-09-19T06:16:11.582Z,68.89
2017-09-19T06:16:43.236Z,68.89
2017-09-19T06:17:14.886Z,68.86
2017-09-19T06:17:46.575Z,68.90
2017-09-19T06:18:18.506Z,68.82
2017-09-19T06:18:50.349Z,68.98
2017-09-19T06:19:22.096Z,69.10
2017-09-19T06:19:53.945Z,69.01
2017-09-19T06:20:25.594Z,68.86
2017-09-19T06:20:57.246Z,68.83
2017-09-19T06:21:28.905Z,68.91
2017-09-19T06:22:00.545Z,69.16
2017-09-19T06:22:32.192Z,69.09
2017-09-19T06:23:03.849Z,69.15
2017-09-19T06:23:35.846Z,69.15
2017-09-19T06:24:07.489Z,69.52
2017-09-19T06:24:39.196Z,69.61
2017-09-19T06:25:10.845Z,69.42
2017-09-19T06:25:42.723Z,69.55
2017-09-19T06:26:14.374Z,69.53
2017-09-19T06:26:46.018Z,69.53
2017-09-19T06:27:17.661Z,69.76
2017-09-19T06:27:49.304Z,69.50
2017-09-19T06:28:20.949Z,69.66
2017-09-19T06:28:52.600Z,69.44
2017-09-19T06:29:24.242Z,69.65
2017-09-19T06:29:56.164Z,69.84
2017-09-19T06:30:27.818Z,69.92
2017-09-19T06:30:59.465Z,69.69
2017-09-19T06:31:31.113Z,69.63
2017-09-19T06:32:02.761Z,69.54
2017-09-19T06:32:34.409Z,69.74
2017-09-19T06:33:06.069Z,69.47
2017-09-19T06:33:37.721Z,69.58
2017-09-19T06:34:09.580Z,69.62
2017-09-19T06:34:41.248Z,69.51
2017-09-19T06:35:12.925Z,69.63
2017-09-19T06:35:44.838Z,69.59
2017-09-19T06:36:16.788Z,69.68
2017-09-19T06:36:48.436Z,69.69
2017-09-19T06:37:20.093Z,69.99
2017-09-19T06:37:51.733Z,69.72
2017-09-19T06:38:23.374Z,69.79
2017-09-19T06:38:55.025Z,69.73
2017-09-19T06:39:26.673Z,69.57
2017-09-19T06:39:58.563Z,70.09
2017-09-19T06:40:30.230Z,69.75
2017-09-19T06:41:01.881Z,69.89
2017-09-19T06:41:33.533Z,69.74
2017-09-19T06:42:05.173Z,69.75
2017-09-19T06:42:36.874Z,69.86
2017-09-19T06:43:08.748Z,69.93
2017-09-19T06:43:40.626Z,69.81
2017-09-19T06:44:12.271Z,69.74
2017-09-19T06:44:43.929Z,69.64
2017-09-19T06:45:16.198Z,70.19
2017-09-19T06:45:47.878Z,69.88
2017-09-19T06:46:19.720Z,69.80
2017-09-19T06:46:51.470Z,69.78
2017-09-19T06:47:23.122Z,69.72
2017-09-19T06:47:54.819Z,69.57